createdAt,value
2017-09-23T00:02:32.649Z,11.50
2017-09-23T00:05:35.001Z,11.60
2017-09-23T00:08:37.041Z,11.60
2017-09-23T00:11:39.447Z,11.60
2017-09-23T00:14:41.446Z,11.60
2017-09-23T00:17:43.818Z,11.60
2017-09-23T00:20:45.868Z,11.60
2017-09-23T00:23:48.324Z,11.60
2017-09-23T00:26:50.374Z,11.60
2017-09-23T00:29:52.741Z,11.60
2017-09-23T00:32:54.878Z,11.60
2017-09-23T00:35:57.255Z,11.50
2017-09-23T00:38:59.490Z,11.50
2017-09-23T00:42:01.900Z,11.40
2017-09-23T00:45:03.859Z,11.40
2017-09-23T00:48:06.982Z,11.20
2017-09-23T00:51:08.911Z,11.20
2017-09-23T00:54:11.302Z,11.20
2017-09-23T00:57:13.248Z,11.10
2017-09-23T01:00:15.604Z,11.10
2017-09-23T01:03:17.555Z,11.10
2017-09-23T01:06:20.103Z,11.00
2017-09-23T01:09:22.047Z,11.00
2017-09-23T01:12:24.500Z,11.00
2017-09-23T01:15:26.443Z,11.00
2017-09-23T01:18:28.815Z,10.90
2017-09-23T01:21:30.750Z,10.90
2017-09-23T01:24:33.128Z,10.90
2017-09-23T01:27:35.068Z,10.90
2017-09-23T01:30:38.240Z,10.80
2017-09-23T01:33:40.194Z,10.80
2017-09-23T01:36:42.553Z,10.70
2017-09-23T01:39:44.494Z,10.70
2017-09-23T01:42:46.851Z,10.60
2017-09-23T01:45:48.798Z,10.60
2017-09-23T01:48:51.169Z,10.60
2017-09-23T01:51:53.198Z,10.50
2017-09-23T01:54:55.556Z,10.50
2017-09-23T01:57:57.520Z,10.50
2017-09-23T02:00:59.888Z,10.50
2017-09-23T02:04:01.986Z,10.40
2017-09-23T02:07:05.090Z,10.40
2017-09-23T02:10:07.049Z,10.30
2017-09-23T02:13:09.404Z,10.30
2017-09-23T02:16:11.348Z,10.30
2017-09-23T02:19:13.701Z,10.20
2017-09-23T02:22:15.672Z,10.20
2017-09-23T02:25:18.035Z,10.10
2017-09-23T02:28:19.963Z,10.10
2017-09-23T02:31:22.332Z,10.00
2017-09-23T02:34:24.427Z,9.90
2017-09-23T02:37:27.564Z,9.80
2017-09-23T02:40:29.608Z,9.80
2017-09-23T02:43:31.959Z,9.80
2017-09-23T02:46:33.887Z,9.70
2017-09-23T02:49:36.170Z,9.70
2017-09-23T02:52:38.156Z,9.60
2017-09-23T02:55:40.475Z,9.60
2017-09-23T02:58:42.507Z,9.60
2017-09-23T03:01:44.980Z,9.60
2017-09-23T03:04:46.940Z,9.50
2017-09-23T03:07:49.399Z,9.50
2017-09-23T03:10:51.432Z,9.50
2017-09-23T03:13:53.808Z,9.40
2017-09-23T03:16:55.751Z,9.40
2017-09-23T03:19:58.112Z,9.40
2017-09-23T03:23:00.155Z,9.40
2017-09-23T03:26:02.446Z,9.30
2017-09-23T03:29:04.404Z,9.30
2017-09-23T03:32:06.813Z,9.20
2017-09-23T03:35:08.844Z,9.20
2017-09-23T03:38:11.145Z,9.10
2017-09-23T03:41:13.156Z,9.10
2017-09-23T03:44:15.727Z,9.10
2017-09-23T03:47:17.689Z,9.10
2017-09-23T03:50:20.145Z,9.10
2017-09-23T03:53:22.323Z,9.10
2017-09-23T03:56:24.639Z,9.00
2017-09-23T03:59:26.569Z,9.00
2017-09-23T04:02:28.956Z,9.00
2017-09-23T04:05:31.017Z,9.00
2017-09-23T04:08:33.364Z,9.00
2017-09-23T04:11:35.303Z,8.90
2017-09-23T04:14:37.604Z,8.90
2017-09-23T04:17:39.635Z,8.90
2017-09-23T04:20:42.050Z,8.90
2017-09-23T04:23:44.943Z,8.90
2017-09-23T04:26:47.299Z,8.90
2017-09-23T04:29:49.336Z,8.90
2017-09-23T04:32:51.646Z,8.80
2017-09-23T04:35:53.669Z,8.80
2017-09-23T04:38:56.025Z,8.80
2017-09-23T04:41:58.366Z,8.80
2017-09-23T04:45:00.740Z,8.70
2017-09-23T04:48:02.787Z,8.70
2017-09-23T04:51:05.099Z,8.70
2017-09-23T04:54:07.851Z,8.70
2017-09-23T04:57:10.159Z,8.70
2017-09-23T05:00:12.331Z,8.70
2017-09-23T05:03:14.679Z,8.70
2017-09-23T05:06:16.621Z,8.70
2017-09-23T05:09:18.975Z,8.70
2017-09-23T05:12:20.907Z,8.60
2017-09-23T05:15:23.170Z,8.60
2017-09-23T05:18:25.117Z,8.60
2017-09-23T05:21:27.477Z,8.70
2017-09-23T05:24:29.439Z,8.70
2017-09-23T05:27:31.810Z,8.70
2017-09-23T05:30:33.832Z,8.80
2017-09-23T05:33:36.193Z,8.80
2017-09-23T05:36:38.345Z,8.80
2017-09-23T05:39:40.706Z,8.90
2017-09-23T05:42:42.672Z,8.90
2017-09-23T05:45:44.961Z,8.90
2017-09-23T05:48:46.901Z,9.00
2017-09-23T05:51:49.300Z,9.00
2017-09-23T05:54:51.270Z,9.10
2017-09-23T05:57:53.641Z,9.20
2017-09-23T06:00:55.882Z,9.30
2017-09-23T06:03:58.324Z,9.50
2017-09-23T06:07:00.383Z,9.70
2017-09-23T06:10:02.755Z,9.80
2017-09-23T06:13:04.710Z,10.10
2017-09-23T06:16:07.048Z,10.30
2017-09-23T06:19:08.983Z,10.60
2017-09-23T06:22:11.356Z,10.80
2017-09-23T06:25:13.297Z,11.10
2017-09-23T06:28:15.865Z,11.30
2017-09-23T06:31:17.804Z,11.50
2017-09-23T06:34:20.086Z,11.90
2017-09-23T06:37:22.170Z,12.40
2017-09-23T06:40:24.489Z,12.80
2017-09-23T06:43:26.420Z,13.30
2017-09-23T06:46:28.724Z,14.20
2017-09-23T06:49:30.728Z,15.50
2017-09-23T06:52:33.020Z,16.20
2017-09-23T06:55:35.032Z,16.10
2017-09-23T06:58:37.329Z,15.80
2017-09-23T07:01:40.160Z,15.40
2017-09-23T07:04:42.530Z,15.30
2017-09-23T07:07:44.668Z,15.50
2017-09-23T07:10:47.048Z,15.80
2017-09-23T07:13:48.988Z,16.10
2017-09-23T07:16:51.349Z,16.50
2017-09-23T07:19:53.421Z,16.80
2017-09-23T07:22:55.751Z,17.00
2017-09-23T07:25:57.805Z,17.00
2017-09-23T07:29:00.151Z,16.90
2017-09-23T07:32:02.298Z,16.70
2017-09-23T07:35:04.760Z,16.40
2017-09-23T07:38:06.716Z,16.20
2017-09-23T07:41:09.090Z,15.90
2017-09-23T07:44:11.037Z,15.60
2017-09-23T07:47:14.200Z,15.20
2017-09-23T07:50:16.240Z,15.10
2017-09-23T07:53:18.514Z,15.00
2017-09-23T07:56:20.442Z,14.80
2017-09-23T07:59:22.812Z,14.80
2017-09-23T08:02:24.759Z,14.70
2017-09-23T08:05:27.111Z,14.70
2017-09-23T08:08:29.091Z,14.80
2017-09-23T08:11:31.406Z,14.90
2017-09-23T08:14:33.362Z,15.20
2017-09-23T08:17:35.706Z,15.50
2017-09-23T08:20:37.666Z,15.80
2017-09-23T08:23:40.015Z,16.20
2017-09-23T08:26:42.077Z,16.80
2017-09-23T08:29:44.445Z,17.50
2017-09-23T08:32:46.507Z,18.70
2017-09-23T08:35:48.848Z,21.30
2017-09-23T08:38:50.892Z,24.30
2017-09-23T08:41:53.247Z,26.60
2017-09-23T08:44:55.192Z,28.50
2017-09-23T08:47:57.570Z,29.30
2017-09-23T08:50:59.498Z,30.40
2017-09-23T08:54:01.792Z,31.40
2017-09-23T08:57:03.804Z,32.60
2017-09-23T09:00:06.280Z,33.70
2017-09-23T09:03:08.305Z,33.40
2017-09-23T09:06:10.664Z,33.10
2017-09-23T09:09:16.243Z,33.00
2017-09-23T09:12:18.556Z,33.40
2017-09-23T09:15:20.489Z,33.90
2017-09-23T09:18:23.527Z,35.20
2017-09-23T09:21:25.531Z,35.20
2017-09-23T09:24:27.812Z,35.80
2017-09-23T09:30:45.725Z,36.60
2017-09-23T09:33:47.763Z,37.10
2017-09-23T09:36:51.039Z,37.60
2017-09-23T09:39:52.983Z,37.60
2017-09-23T09:42:55.346Z,37.90
2017-09-23T09:45:57.272Z,38.00
2017-09-23T09:48:59.649Z,38.30
2017-09-23T09:52:01.624Z,38.60
2017-09-23T09:55:03.960Z,38.90
2017-09-23T09:58:05.894Z,39.30
2017-09-23T10:01:08.992Z,39.70
2017-09-23T10:04:10.932Z,39.80
2017-09-23T10:07:13.293Z,39.40
2017-09-23T10:10:15.235Z,38.50
2017-09-23T10:13:17.592Z,37.50
2017-09-23T10:16:19.536Z,36.50
2017-09-23T10:19:21.915Z,36.30
2017-09-23T10:22:23.942Z,36.20
2017-09-23T10:25:26.303Z,36.90
2017-09-23T10:28:28.245Z,37.50
2017-09-23T10:31:30.624Z,37.10
2017-09-23T10:34:32.659Z,35.80
2017-09-23T10:37:35.019Z,34.10
2017-09-23T10:40:36.958Z,33.10
2017-09-23T10:43:39.327Z,32.70
2017-09-23T10:46:41.371Z,32.60
2017-09-23T10:49:43.746Z,33.80
2017-09-23T10:52:45.697Z,34.60
2017-09-23T10:55:48.031Z,34.00
2017-09-23T10:58:49.981Z,33.40
2017-09-23T11:01:52.343Z,32.80
2017-09-23T11:04:54.296Z,32.20
2017-09-23T11:07:56.639Z,31.80
2017-09-23T11:10:58.601Z,31.60
2017-09-23T11:14:00.955Z,31.60
2017-09-23T11:17:02.996Z,31.90
2017-09-23T11:20:05.346Z,32.20
2017-09-23T11:23:07.318Z,32.40
2017-09-23T11:26:09.672Z,32.60
2017-09-23T11:29:11.711Z,33.70
2017-09-23T11:32:14.173Z,35.00
2017-09-23T11:35:16.137Z,35.90
2017-09-23T11:38:18.488Z,36.30
2017-09-23T11:41:20.538Z,36.90
2017-09-23T11:44:22.892Z,37.00
2017-09-23T11:47:25.661Z,35.90
2017-09-23T11:50:28.000Z,34.90
2017-09-23T11:53:29.961Z,34.20
2017-09-23T11:56:32.320Z,33.60
2017-09-23T11:59:34.286Z,33.10
2017-09-23T12:02:36.634Z,33.00
2017-09-23T12:05:38.662Z,32.60
2017-09-23T12:08:41.035Z,32.70
2017-09-23T12:11:42.971Z,32.60
2017-09-23T12:14:45.338Z,34.30
2017-09-23T12:17:47.390Z,36.00
2017-09-23T12:20:49.671Z,36.90
2017-09-23T12:23:51.708Z,36.40
2017-09-23T12:26:54.061Z,34.70
2017-09-23T12:29:56.098Z,33.00
2017-09-23T12:32:58.469Z,32.80
2017-09-23T12:36:00.519Z,33.60
2017-09-23T12:39:02.810Z,34.70
2017-09-23T12:42:04.833Z,36.00
2017-09-23T12:45:07.179Z,37.00
2017-09-23T12:48:09.226Z,36.60
2017-09-23T12:51:11.682Z,35.10
2017-09-23T12:54:13.631Z,33.10
2017-09-23T12:57:15.984Z,31.10
2017-09-23T13:00:17.944Z,29.60
2017-09-23T13:03:20.294Z,28.30
2017-09-23T13:06:22.242Z,27.00
2017-09-23T13:09:24.603Z,26.00
2017-09-23T13:12:26.547Z,25.20
2017-09-23T13:15:28.913Z,24.60
2017-09-23T13:18:30.855Z,24.20
2017-09-23T13:21:33.203Z,23.90
2017-09-23T13:24:35.151Z,23.90
2017-09-23T13:27:37.522Z,24.00
2017-09-23T13:30:39.454Z,24.20
2017-09-23T13:33:41.759Z,24.40
2017-09-23T13:36:43.764Z,24.70
2017-09-23T13:39:46.026Z,24.80
2017-09-23T13:42:47.969Z,24.50
2017-09-23T13:45:50.249Z,24.20
2017-09-23T13:48:52.206Z,23.70
2017-09-23T13:51:55.648Z,23.40
2017-09-23T13:54:57.589Z,23.00
2017-09-23T13:58:00.549Z,22.60
2017-09-23T14:01:03.253Z,22.00
2017-09-23T14:04:05.597Z,22.00
2017-09-23T14:07:07.568Z,21.80
2017-09-23T14:10:09.919Z,21.70
2017-09-23T14:13:11.955Z,21.50
2017-09-23T14:16:14.291Z,21.40
2017-09-23T14:19:16.988Z,21.20
2017-09-23T14:22:19.338Z,21.10
2017-09-23T14:25:21.295Z,21.10
2017-09-23T14:28:24.458Z,21.00
2017-09-23T14:31:26.483Z,20.90
2017-09-23T14:34:29.612Z,20.80
2017-09-23T14:37:31.638Z,20.70
2017-09-23T14:40:34.009Z,20.80
2017-09-23T14:43:35.945Z,20.80
2017-09-23T14:46:38.329Z,20.80
2017-09-23T14:49:40.291Z,20.80
2017-09-23T14:52:42.702Z,20.80
2017-09-23T14:55:44.660Z,20.80
2017-09-23T14:58:47.118Z,20.70
2017-09-23T15:01:49.055Z,20.50
2017-09-23T15:04:51.391Z,20.40
2017-09-23T15:07:53.374Z,20.30
2017-09-23T15:10:55.724Z,20.20
2017-09-23T15:13:57.691Z,20.10
2017-09-23T15:17:00.236Z,20.00
2017-09-23T15:20:02.194Z,19.90
2017-09-23T15:23:04.531Z,19.80
2017-09-23T15:26:06.467Z,19.80
2017-09-23T15:29:09.586Z,19.70
2017-09-23T15:32:11.519Z,19.70
2017-09-23T15:35:13.990Z,19.70
2017-09-23T15:38:16.023Z,19.70
2017-09-23T15:41:18.416Z,19.60
2017-09-23T15:44:20.439Z,19.60
2017-09-23T15:47:22.796Z,19.60
2017-09-23T15:50:24.743Z,19.60
2017-09-23T15:53:27.098Z,19.50
2017-09-23T15:56:29.039Z,19.50
2017-09-23T15:59:31.419Z,19.40
2017-09-23T16:02:33.473Z,19.30
2017-09-23T16:05:35.811Z,19.30
2017-09-23T16:08:37.851Z,19.20
2017-09-23T16:11:40.235Z,19.10
2017-09-23T16:14:42.259Z,19.10
2017-09-23T16:17:44.730Z,19.00
2017-09-23T16:20:46.659Z,19.00
2017-09-23T16:23:49.054Z,18.90
2017-09-23T16:26:50.982Z,18.80
2017-09-23T16:29:53.340Z,18.80
2017-09-23T16:32:55.287Z,18.80
2017-09-23T16:35:57.648Z,18.70
2017-09-23T16:38:59.699Z,18.60
2017-09-23T16:42:01.996Z,18.50
2017-09-23T16:45:04.918Z,18.40
2017-09-23T16:48:07.379Z,18.40
2017-09-23T16:51:09.326Z,18.30
2017-09-23T16:54:11.642Z,18.30
2017-09-23T16:57:14.367Z,18.10
2017-09-23T17:00:16.703Z,18.10
2017-09-23T17:03:18.788Z,18.00
2017-09-23T17:06:21.068Z,17.90
2017-09-23T17:09:23.030Z,17.90
2017-09-23T17:12:26.238Z,17.70
2017-09-23T17:15:28.192Z,17.60
2017-09-23T17:18:30.555Z,17.60
2017-09-23T17:21:32.505Z,17.50
2017-09-23T17:24:34.943Z,17.40
2017-09-23T17:27:37.015Z,17.30
2017-09-23T17:30:39.383Z,17.20
2017-09-23T17:33:41.415Z,17.20
2017-09-23T17:36:43.767Z,17.10
2017-09-23T17:39:45.702Z,17.00
2017-09-23T17:42:48.066Z,17.00
2017-09-23T17:45:50.068Z,16.90
2017-09-23T17:48:53.203Z,16.80
2017-09-23T17:51:55.154Z,16.70
2017-09-23T17:54:57.485Z,16.70
2017-09-23T17:57:59.565Z,16.60
2017-09-23T18:01:01.912Z,16.50
2017-09-23T18:04:04.642Z,16.30
2017-09-23T18:07:06.975Z,16.30
2017-09-23T18:10:08.920Z,16.20
2017-09-23T18:13:11.293Z,16.10
2017-09-23T18:16:13.322Z,16.00
2017-09-23T18:19:15.698Z,15.90
2017-09-23T18:22:17.676Z,15.80
2017-09-23T18:25:20.925Z,15.60
2017-09-23T18:28:22.881Z,15.50
2017-09-23T18:31:25.217Z,15.50
2017-09-23T18:34:27.167Z,15.40
2017-09-23T18:37:29.519Z,15.30
2017-09-23T18:40:31.672Z,15.20
2017-09-23T18:43:34.006Z,15.20
2017-09-23T18:46:36.852Z,15.10
2017-09-23T18:49:39.150Z,15.00
2017-09-23T18:52:41.112Z,15.00
2017-09-23T18:55:43.469Z,14.90
2017-09-23T18:58:45.432Z,14.80
2017-09-23T19:01:47.765Z,14.80
2017-09-23T19:04:49.724Z,14.70
2017-09-23T19:07:52.845Z,14.60
2017-09-23T19:10:55.661Z,14.50
2017-09-23T19:13:58.028Z,14.50
2017-09-23T19:17:00.081Z,14.40
2017-09-23T19:20:02.448Z,14.40
2017-09-23T19:23:04.476Z,14.30
2017-09-23T19:26:07.568Z,14.30
2017-09-23T19:29:09.586Z,14.20
2017-09-23T19:32:11.875Z,14.20
2017-09-23T19:35:13.891Z,14.10
2017-09-23T19:38:16.267Z,14.10
2017-09-23T19:41:18.316Z,14.00
2017-09-23T19:44:20.995Z,14.00
2017-09-23T19:47:23.012Z,13.90
2017-09-23T19:50:25.320Z,13.80
2017-09-23T19:53:27.293Z,13.80
2017-09-23T19:56:29.587Z,13.70
2017-09-23T19:59:31.855Z,13.60
2017-09-23T20:02:34.205Z,13.60
2017-09-23T20:05:37.377Z,13.50
2017-09-23T20:08:39.740Z,13.50
2017-09-23T20:11:41.770Z,13.50
2017-09-23T20:14:44.148Z,13.40
2017-09-23T20:17:46.080Z,13.40
2017-09-23T20:20:48.456Z,13.40
2017-09-23T20:23:50.463Z,13.40
2017-09-23T20:26:53.561Z,13.30
2017-09-23T20:29:55.513Z,13.30
2017-09-23T20:32:57.891Z,13.30
2017-09-23T20:35:59.926Z,13.30
2017-09-23T20:39:02.369Z,13.30
2017-09-23T20:42:04.321Z,13.20
2017-09-23T20:45:06.676Z,13.20
2017-09-23T20:48:08.701Z,13.20
2017-09-23T20:51:11.261Z,13.10
2017-09-23T20:54:13.236Z,13.10
2017-09-23T20:57:15.577Z,13.10
2017-09-23T21:00:17.624Z,13.00
2017-09-23T21:03:19.992Z,13.00
2017-09-23T21:06:22.031Z,13.00
2017-09-23T21:09:24.400Z,13.00
2017-09-23T21:12:26.441Z,12.90
2017-09-23T21:15:28.808Z,12.90
2017-09-23T21:18:30.848Z,13.00
2017-09-23T21:21:33.133Z,13.00
2017-09-23T21:24:35.155Z,13.00
2017-09-23T21:27:37.506Z,12.90
2017-09-23T21:30:39.613Z,12.90
2017-09-23T21:33:42.893Z,12.90
2017-09-23T21:36:45.612Z,12.90
2017-09-23T21:39:47.948Z,12.80
2017-09-23T21:42:49.880Z,12.90
2017-09-23T21:45:52.383Z,12.80
2017-09-23T21:48:54.321Z,12.80
2017-09-23T21:51:56.702Z,12.70
2017-09-23T21:54:58.726Z,12.70
2017-09-23T21:58:01.095Z,12.70
2017-09-23T22:01:03.046Z,12.60
2017-09-23T22:04:05.433Z,12.60
2017-09-23T22:07:08.168Z,12.60
2017-09-23T22:10:10.525Z,12.60
2017-09-23T22:13:12.496Z,12.50
2017-09-23T22:16:14.861Z,12.50
2017-09-23T22:19:16.862Z,12.50
2017-09-23T22:22:19.227Z,12.50
2017-09-23T22:25:21.168Z,12.50
2017-09-23T22:28:23.519Z,12.50
2017-09-23T22:31:25.482Z,12.60
2017-09-23T22:34:27.750Z,12.50
2017-09-23T22:37:29.755Z,12.50
2017-09-23T22:40:33.663Z,12.50
2017-09-23T22:43:35.629Z,12.50
2017-09-23T22:46:38.116Z,12.50
2017-09-23T22:49:40.172Z,12.40
2017-09-23T22:52:42.513Z,12.40
2017-09-23T22:55:44.479Z,12.40
2017-09-23T22:58:46.841Z,12.40
2017-09-23T23:01:48.778Z,12.40
2017-09-23T23:04:51.099Z,12.40
2017-09-23T23:07:53.060Z,12.40
2017-09-23T23:10:55.420Z,12.40
2017-09-23T23:13:57.471Z,12.40
2017-09-23T23:16:59.752Z,12.40
2017-09-23T23:20:01.776Z,12.40
2017-09-23T23:23:04.132Z,12.40
2017-09-23T23:26:06.195Z,12.40
2017-09-23T23:29:08.584Z,12.40
2017-09-23T23:32:11.577Z,12.40
2017-09-23T23:35:14.687Z,12.40
2017-09-23T23:38:16.735Z,12.40
2017-09-23T23:41:19.215Z,12.40
2017-09-23T23:44:21.362Z,12.40
2017-09-23T23:47:23.750Z,12.40
2017-09-23T23:50:25.799Z,12.40
2017-09-23T23:53:28.154Z,12.40
2017-09-23T23:56:30.982Z,12.40
2017-09-23T23:59:33.309Z,12.40
